sensor_id;sensor_type;location;lat;lon;timestamp;P1;durP1;ratioP1;P2;durP2;ratioP2
4885;SDS011;2457;51.788;6.136;2023-02-15T00:01:08;19.83;;;10.13;;
4885;SDS011;2457;51.788;6.136;2023-02-15T00:03:35;16.67;;;9.43;;
4885;SDS011;2457;51.788;6.136;2023-02-15T00:06:03;18.80;;;9.80;;
4885;SDS011;2457;51.788;6.136;2023-02-15T00:08:31;17.77;;;11.20;;
4885;SDS011;2457;51.788;6.136;2023-02-15T00:11:08;18.63;;;10.67;;
4885;SDS011;2457;51.788;6.136;2023-02-15T00:13:36;17.30;;;9.97;;
4885;SDS011;2457;51.788;6.136;2023-02-15T00:16:05;19.23;;;9.93;;
4885;SDS011;2457;51.788;6.136;2023-02-15T00:18:33;19.83;;;10.80;;
4885;SDS011;2457;51.788;6.136;2023-02-15T00:21:05;18.67;;;9.60;;
4885;SDS011;2457;51.788;6.136;2023-02-15T00:23:29;15.10;;;8.87;;
4885;SDS011;2457;51.788;6.136;2023-02-15T00:26:03;18.27;;;10.20;;
4885;SDS011;2457;51.788;6.136;2023-02-15T00:28:30;16.77;;;9.77;;
4885;SDS011;2457;51.788;6.136;2023-02-15T00:31:07;18.77;;;10.40;;
4885;SDS011;2457;51.788;6.136;2023-02-15T00:33:35;22.13;;;11.03;;
4885;SDS011;2457;51.788;6.136;2023-02-15T00:36:03;19.50;;;9.97;;
4885;SDS011;2457;51.788;6.136;2023-02-15T00:38:31;17.30;;;9.53;;
4885;SDS011;2457;51.788;6.136;2023-02-15T00:41:00;19.53;;;10.27;;
4885;SDS011;2457;51.788;6.136;2023-02-15T00:43:28;17.93;;;9.63;;
4885;SDS011;2457;51.788;6.136;2023-02-15T00:45:55;18.20;;;10.63;;
4885;SDS011;2457;51.788;6.136;2023-02-15T00:48:23;18.07;;;9.80;;
4885;SDS011;2457;51.788;6.136;2023-02-15T00:50:51;22.83;;;9.60;;
4885;SDS011;2457;51.788;6.136;2023-02-15T00:53:18;22.43;;;10.60;;
4885;SDS011;2457;51.788;6.136;2023-02-15T00:55:46;18.03;;;10.13;;
4885;SDS011;2457;51.788;6.136;2023-02-15T00:58:13;20.07;;;9.57;;
4885;SDS011;2457;51.788;6.136;2023-02-15T01:00:42;16.70;;;9.30;;
4885;SDS011;2457;51.788;6.136;2023-02-15T01:03:10;18.53;;;10.73;;
4885;SDS011;2457;51.788;6.136;2023-02-15T01:05:38;18.53;;;10.50;;
4885;SDS011;2457;51.788;6.136;2023-02-15T01:08:05;20.20;;;10.00;;
4885;SDS011;2457;51.788;6.136;2023-02-15T01:10:33;16.87;;;9.17;;
4885;SDS011;2457;51.788;6.136;2023-02-15T01:13:00;15.40;;;9.33;;
4885;SDS011;2457;51.788;6.136;2023-02-15T01:15:28;17.90;;;9.73;;
4885;SDS011;2457;51.788;6.136;2023-02-15T01:17:55;18.00;;;9.87;;
4885;SDS011;2457;51.788;6.136;2023-02-15T01:20:24;18.10;;;10.03;;
4885;SDS011;2457;51.788;6.136;2023-02-15T01:22:52;16.63;;;10.07;;
4885;SDS011;2457;51.788;6.136;2023-02-15T01:25:20;16.73;;;9.20;;
4885;SDS011;2457;51.788;6.136;2023-02-15T01:27:48;18.17;;;10.33;;
4885;SDS011;2457;51.788;6.136;2023-02-15T01:30:15;19.03;;;9.90;;
4885;SDS011;2457;51.788;6.136;2023-02-15T01:32:43;20.40;;;10.70;;
4885;SDS011;2457;51.788;6.136;2023-02-15T01:35:10;16.30;;;9.57;;
4885;SDS011;2457;51.788;6.136;2023-02-15T01:37:38;17.63;;;10.30;;
4885;SDS011;2457;51.788;6.136;2023-02-15T01:40:07;19.90;;;10.43;;
4885;SDS011;2457;51.788;6.136;2023-02-15T01:42:34;17.37;;;10.17;;
4885;SDS011;2457;51.788;6.136;2023-02-15T01:45:03;17.93;;;10.43;;
4885;SDS011;2457;51.788;6.136;2023-02-15T01:50:17;16.40;;;9.70;;
4885;SDS011;2457;51.788;6.136;2023-02-15T01:53:03;18.80;;;10.07;;
4885;SDS011;2457;51.788;6.136;2023-02-15T01:55:16;17.73;;;8.73;;
4885;SDS011;2457;51.788;6.136;2023-02-15T01:57:44;15.23;;;9.30;;
4885;SDS011;2457;51.788;6.136;2023-02-15T02:00:13;17.70;;;10.17;;
4885;SDS011;2457;51.788;6.136;2023-02-15T02:02:42;19.47;;;9.87;;
4885;SDS011;2457;51.788;6.136;2023-02-15T02:05:10;17.83;;;10.30;;
4885;SDS011;2457;51.788;6.136;2023-02-15T02:07:38;16.17;;;9.30;;
4885;SDS011;2457;51.788;6.136;2023-02-15T02:10:07;15.90;;;8.97;;
4885;SDS011;2457;51.788;6.136;2023-02-15T02:12:34;18.47;;;10.17;;
4885;SDS011;2457;51.788;6.136;2023-02-15T02:15:03;15.40;;;9.50;;
4885;SDS011;2457;51.788;6.136;2023-02-15T02:30:49;18.73;;;10.33;;
4885;SDS011;2457;51.788;6.136;2023-02-15T02:36:08;17.70;;;9.67;;
4885;SDS011;2457;51.788;6.136;2023-02-15T02:38:42;17.87;;;9.80;;
4885;SDS011;2457;51.788;6.136;2023-02-15T02:41:16;18.90;;;9.73;;
4885;SDS011;2457;51.788;6.136;2023-02-15T02:43:48;17.77;;;9.80;;
4885;SDS011;2457;51.788;6.136;2023-02-15T02:46:17;16.97;;;9.30;;
4885;SDS011;2457;51.788;6.136;2023-02-15T02:48:46;20.40;;;11.00;;
4885;SDS011;2457;51.788;6.136;2023-02-15T02:51:15;17.50;;;9.40;;
4885;SDS011;2457;51.788;6.136;2023-02-15T02:53:44;20.57;;;10.43;;
4885;SDS011;2457;51.788;6.136;2023-02-15T02:56:15;18.97;;;8.93;;
4885;SDS011;2457;51.788;6.136;2023-02-15T02:58:42;19.97;;;10.30;;
4885;SDS011;2457;51.788;6.136;2023-02-15T03:01:24;19.60;;;10.80;;
4885;SDS011;2457;51.788;6.136;2023-02-15T03:03:54;22.47;;;12.37;;
4885;SDS011;2457;51.788;6.136;2023-02-15T03:06:23;18.27;;;10.50;;
4885;SDS011;2457;51.788;6.136;2023-02-15T03:08:51;19.73;;;9.97;;
4885;SDS011;2457;51.788;6.136;2023-02-15T03:11:19;19.37;;;11.40;;
4885;SDS011;2457;51.788;6.136;2023-02-15T03:13:47;19.30;;;10.67;;
4885;SDS011;2457;51.788;6.136;2023-02-15T03:16:15;16.83;;;9.77;;
4885;SDS011;2457;51.788;6.136;2023-02-15T03:18:58;17.90;;;10.63;;
4885;SDS011;2457;51.788;6.136;2023-02-15T03:21:38;18.20;;;10.77;;
4885;SDS011;2457;51.788;6.136;2023-02-15T03:24:03;19.43;;;11.33;;
4885;SDS011;2457;51.788;6.136;2023-02-15T03:26:30;22.20;;;12.20;;
4885;SDS011;2457;51.788;6.136;2023-02-15T03:28:59;19.00;;;10.30;;
4885;SDS011;2457;51.788;6.136;2023-02-15T03:31:28;21.80;;;11.50;;
4885;SDS011;2457;51.788;6.136;2023-02-15T03:33:57;22.27;;;11.80;;
4885;SDS011;2457;51.788;6.136;2023-02-15T03:36:48;19.37;;;12.03;;
4885;SDS011;2457;51.788;6.136;2023-02-15T03:41:31;21.10;;;12.03;;
4885;SDS011;2457;51.788;6.136;2023-02-15T03:44:09;27.23;;;12.90;;
4885;SDS011;2457;51.788;6.136;2023-02-15T03:46:37;18.13;;;11.50;;
4885;SDS011;2457;51.788;6.136;2023-02-15T03:49:04;23.33;;;12.00;;
4885;SDS011;2457;51.788;6.136;2023-02-15T03:51:33;19.00;;;11.80;;
4885;SDS011;2457;51.788;6.136;2023-02-15T03:54:03;20.10;;;11.00;;
4885;SDS011;2457;51.788;6.136;2023-02-15T03:56:30;20.77;;;11.90;;
4885;SDS011;2457;51.788;6.136;2023-02-15T03:58:57;22.00;;;12.90;;
4885;SDS011;2457;51.788;6.136;2023-02-15T04:04:25;17.00;;;10.10;;
4885;SDS011;2457;51.788;6.136;2023-02-15T04:06:52;22.13;;;12.60;;
4885;SDS011;2457;51.788;6.136;2023-02-15T04:09:20;20.03;;;11.80;;
4885;SDS011;2457;51.788;6.136;2023-02-15T04:12:05;22.83;;;12.93;;
4885;SDS011;2457;51.788;6.136;2023-02-15T04:14:33;19.50;;;12.67;;
4885;SDS011;2457;51.788;6.136;2023-02-15T04:17:18;22.80;;;11.47;;
4885;SDS011;2457;51.788;6.136;2023-02-15T04:19:46;20.23;;;11.90;;
4885;SDS011;2457;51.788;6.136;2023-02-15T04:22:31;18.93;;;11.67;;
4885;SDS011;2457;51.788;6.136;2023-02-15T04:25:16;19.73;;;11.07;;
4885;SDS011;2457;51.788;6.136;2023-02-15T04:27:48;21.03;;;11.00;;
4885;SDS011;2457;51.788;6.136;2023-02-15T04:30:14;20.20;;;11.23;;
4885;SDS011;2457;51.788;6.136;2023-02-15T04:32:41;22.33;;;11.60;;
4885;SDS011;2457;51.788;6.136;2023-02-15T04:35:09;19.83;;;11.03;;
4885;SDS011;2457;51.788;6.136;2023-02-15T04:37:36;18.83;;;11.90;;
4885;SDS011;2457;51.788;6.136;2023-02-15T04:40:04;21.03;;;11.90;;
4885;SDS011;2457;51.788;6.136;2023-02-15T04:42:32;20.60;;;11.03;;
4885;SDS011;2457;51.788;6.136;2023-02-15T04:45:00;19.43;;;11.53;;
4885;SDS011;2457;51.788;6.136;2023-02-15T04:47:27;20.57;;;12.10;;
4885;SDS011;2457;51.788;6.136;2023-02-15T04:49:54;20.97;;;12.13;;
4885;SDS011;2457;51.788;6.136;2023-02-15T04:52:21;22.70;;;11.50;;
4885;SDS011;2457;51.788;6.136;2023-02-15T04:54:49;19.13;;;11.03;;
4885;SDS011;2457;51.788;6.136;2023-02-15T04:57:16;19.70;;;11.47;;
4885;SDS011;2457;51.788;6.136;2023-02-15T04:59:43;21.40;;;11.90;;
4885;SDS011;2457;51.788;6.136;2023-02-15T05:02:10;24.63;;;12.10;;
4885;SDS011;2457;51.788;6.136;2023-02-15T05:04:38;21.53;;;11.70;;
4885;SDS011;2457;51.788;6.136;2023-02-15T05:07:05;27.60;;;12.23;;
4885;SDS011;2457;51.788;6.136;2023-02-15T05:09:32;20.10;;;10.93;;
4885;SDS011;2457;51.788;6.136;2023-02-15T05:11:59;20.63;;;12.10;;
4885;SDS011;2457;51.788;6.136;2023-02-15T05:14:27;22.60;;;11.00;;
4885;SDS011;2457;51.788;6.136;2023-02-15T05:16:54;23.67;;;12.67;;
4885;SDS011;2457;51.788;6.136;2023-02-15T05:19:21;19.23;;;11.70;;
4885;SDS011;2457;51.788;6.136;2023-02-15T05:21:50;20.57;;;11.23;;
4885;SDS011;2457;51.788;6.136;2023-02-15T05:24:17;21.80;;;12.50;;
4885;SDS011;2457;51.788;6.136;2023-02-15T05:27:03;21.40;;;12.57;;
4885;SDS011;2457;51.788;6.136;2023-02-15T05:29:48;23.53;;;12.30;;
4885;SDS011;2457;51.788;6.136;2023-02-15T05:32:16;21.17;;;12.20;;
4885;SDS011;2457;51.788;6.136;2023-02-15T05:34:43;19.47;;;12.23;;
4885;SDS011;2457;51.788;6.136;2023-02-15T05:37:10;21.80;;;11.70;;
4885;SDS011;2457;51.788;6.136;2023-02-15T05:39:37;21.43;;;12.50;;
4885;SDS011;2457;51.788;6.136;2023-02-15T05:42:05;25.47;;;13.50;;
4885;SDS011;2457;51.788;6.136;2023-02-15T05:44:32;21.77;;;12.57;;
4885;SDS011;2457;51.788;6.136;2023-02-15T05:47:00;25.27;;;13.27;;
4885;SDS011;2457;51.788;6.136;2023-02-15T05:49:29;24.93;;;12.97;;
4885;SDS011;2457;51.788;6.136;2023-02-15T05:51:56;19.93;;;12.40;;
4885;SDS011;2457;51.788;6.136;2023-02-15T05:54:24;23.07;;;13.57;;
4885;SDS011;2457;51.788;6.136;2023-02-15T05:56:51;24.03;;;12.77;;
4885;SDS011;2457;51.788;6.136;2023-02-15T05:59:18;21.27;;;12.33;;
4885;SDS011;2457;51.788;6.136;2023-02-15T06:01:45;23.00;;;13.00;;
4885;SDS011;2457;51.788;6.136;2023-02-15T06:04:13;23.47;;;11.90;;
4885;SDS011;2457;51.788;6.136;2023-02-15T06:06:40;24.17;;;12.10;;
4885;SDS011;2457;51.788;6.136;2023-02-15T06:09:07;18.07;;;10.47;;
4885;SDS011;2457;51.788;6.136;2023-02-15T06:11:34;21.50;;;12.57;;
4885;SDS011;2457;51.788;6.136;2023-02-15T06:14:02;22.90;;;12.87;;
4885;SDS011;2457;51.788;6.136;2023-02-15T06:16:29;23.40;;;13.27;;
4885;SDS011;2457;51.788;6.136;2023-02-15T06:18:56;25.73;;;13.40;;
4885;SDS011;2457;51.788;6.136;2023-02-15T06:21:25;20.37;;;12.53;;
4885;SDS011;2457;51.788;6.136;2023-02-15T06:23:52;21.10;;;13.03;;
4885;SDS011;2457;51.788;6.136;2023-02-15T06:26:19;25.77;;;13.47;;
4885;SDS011;2457;51.788;6.136;2023-02-15T06:28:47;20.83;;;12.10;;
4885;SDS011;2457;51.788;6.136;2023-02-15T06:31:14;20.40;;;11.70;;
4885;SDS011;2457;51.788;6.136;2023-02-15T06:33:41;22.53;;;12.10;;
4885;SDS011;2457;51.788;6.136;2023-02-15T06:36:08;22.23;;;13.43;;
4885;SDS011;2457;51.788;6.136;2023-02-15T06:38:36;21.73;;;12.30;;
4885;SDS011;2457;51.788;6.136;2023-02-15T06:41:03;25.00;;;13.67;;
4885;SDS011;2457;51.788;6.136;2023-02-15T06:43:30;20.97;;;12.23;;
4885;SDS011;2457;51.788;6.136;2023-02-15T06:45:58;25.07;;;14.07;;
4885;SDS011;2457;51.788;6.136;2023-02-15T06:48:25;25.33;;;13.47;;
4885;SDS011;2457;51.788;6.136;2023-02-15T06:50:53;22.23;;;13.50;;
4885;SDS011;2457;51.788;6.136;2023-02-15T06:53:20;21.10;;;12.47;;
4885;SDS011;2457;51.788;6.136;2023-02-15T06:55:47;23.60;;;14.20;;
4885;SDS011;2457;51.788;6.136;2023-02-15T06:58:14;24.70;;;12.60;;
4885;SDS011;2457;51.788;6.136;2023-02-15T07:00:42;26.27;;;13.27;;
4885;SDS011;2457;51.788;6.136;2023-02-15T07:03:09;21.30;;;13.07;;
4885;SDS011;2457;51.788;6.136;2023-02-15T07:05:36;23.93;;;13.90;;
4885;SDS011;2457;51.788;6.136;2023-02-15T07:08:03;22.80;;;13.30;;
4885;SDS011;2457;51.788;6.136;2023-02-15T07:10:31;21.60;;;12.17;;
4885;SDS011;2457;51.788;6.136;2023-02-15T07:12:58;24.20;;;13.43;;
4885;SDS011;2457;51.788;6.136;2023-02-15T07:15:25;21.70;;;13.67;;
4885;SDS011;2457;51.788;6.136;2023-02-15T07:17:52;23.93;;;13.30;;
4885;SDS011;2457;51.788;6.136;2023-02-15T07:20:20;23.00;;;12.97;;
4885;SDS011;2457;51.788;6.136;2023-02-15T07:22:48;22.07;;;12.50;;
4885;SDS011;2457;51.788;6.136;2023-02-15T07:25:15;22.40;;;12.10;;
4885;SDS011;2457;51.788;6.136;2023-02-15T07:27:43;26.87;;;12.83;;
4885;SDS011;2457;51.788;6.136;2023-02-15T07:30:11;20.77;;;12.30;;
4885;SDS011;2457;51.788;6.136;2023-02-15T07:32:39;27.10;;;13.50;;
4885;SDS011;2457;51.788;6.136;2023-02-15T07:35:08;24.47;;;13.70;;
4885;SDS011;2457;51.788;6.136;2023-02-15T07:37:35;25.93;;;14.57;;
4885;SDS011;2457;51.788;6.136;2023-02-15T07:40:03;24.20;;;13.73;;
4885;SDS011;2457;51.788;6.136;2023-02-15T07:42:31;25.93;;;13.43;;
4885;SDS011;2457;51.788;6.136;2023-02-15T07:44:58;23.20;;;13.10;;
4885;SDS011;2457;51.788;6.136;2023-02-15T07:47:26;23.20;;;13.33;;
4885;SDS011;2457;51.788;6.136;2023-02-15T07:49:53;24.57;;;12.97;;
4885;SDS011;2457;51.788;6.136;2023-02-15T07:52:20;22.67;;;13.30;;
4885;SDS011;2457;51.788;6.136;2023-02-15T07:54:48;24.57;;;12.27;;
4885;SDS011;2457;51.788;6.136;2023-02-15T07:57:15;23.83;;;13.07;;
4885;SDS011;2457;51.788;6.136;2023-02-15T07:59:42;23.90;;;13.77;;
4885;SDS011;2457;51.788;6.136;2023-02-15T08:02:10;24.47;;;12.20;;
4885;SDS011;2457;51.788;6.136;2023-02-15T08:04:37;27.37;;;13.23;;
4885;SDS011;2457;51.788;6.136;2023-02-15T08:07:05;26.93;;;13.80;;
4885;SDS011;2457;51.788;6.136;2023-02-15T08:09:33;23.03;;;12.30;;
4885;SDS011;2457;51.788;6.136;2023-02-15T08:12:00;25.63;;;13.10;;
4885;SDS011;2457;51.788;6.136;2023-02-15T08:14:28;26.00;;;13.00;;
4885;SDS011;2457;51.788;6.136;2023-02-15T08:16:55;26.30;;;12.67;;
4885;SDS011;2457;51.788;6.136;2023-02-15T08:19:29;26.43;;;13.90;;
4885;SDS011;2457;51.788;6.136;2023-02-15T08:21:57;25.20;;;12.60;;
4885;SDS011;2457;51.788;6.136;2023-02-15T08:24:26;24.10;;;13.30;;
4885;SDS011;2457;51.788;6.136;2023-02-15T08:26:53;20.90;;;13.00;;
4885;SDS011;2457;51.788;6.136;2023-02-15T08:29:26;24.37;;;13.83;;
4885;SDS011;2457;51.788;6.136;2023-02-15T08:31:52;27.77;;;13.97;;
4885;SDS011;2457;51.788;6.136;2023-02-15T08:34:19;25.70;;;13.77;;
4885;SDS011;2457;51.788;6.136;2023-02-15T08:36:46;23.40;;;13.27;;
4885;SDS011;2457;51.788;6.136;2023-02-15T08:39:14;24.80;;;13.27;;
4885;SDS011;2457;51.788;6.136;2023-02-15T08:41:43;24.77;;;13.13;;
4885;SDS011;2457;51.788;6.136;2023-02-15T08:44:10;22.50;;;13.23;;
4885;SDS011;2457;51.788;6.136;2023-02-15T08:46:38;27.17;;;14.53;;
4885;SDS011;2457;51.788;6.136;2023-02-15T08:49:06;24.70;;;13.40;;
4885;SDS011;2457;51.788;6.136;2023-02-15T08:51:35;23.77;;;13.50;;
4885;SDS011;2457;51.788;6.136;2023-02-15T08:54:04;24.57;;;13.10;;
4885;SDS011;2457;51.788;6.136;2023-02-15T08:56:39;23.83;;;12.43;;
4885;SDS011;2457;51.788;6.136;2023-02-15T08:59:07;24.60;;;13.57;;
4885;SDS011;2457;51.788;6.136;2023-02-15T09:01:35;21.50;;;12.93;;
4885;SDS011;2457;51.788;6.136;2023-02-15T09:04:04;24.07;;;12.60;;
4885;SDS011;2457;51.788;6.136;2023-02-15T09:06:33;27.63;;;13.30;;
4885;SDS011;2457;51.788;6.136;2023-02-15T09:09:01;22.13;;;13.27;;
4885;SDS011;2457;51.788;6.136;2023-02-15T09:11:30;26.07;;;14.20;;
4885;SDS011;2457;51.788;6.136;2023-02-15T09:13:59;25.47;;;13.00;;
4885;SDS011;2457;51.788;6.136;2023-02-15T09:16:32;24.60;;;14.37;;
4885;SDS011;2457;51.788;6.136;2023-02-15T09:18:55;26.17;;;14.57;;
4885;SDS011;2457;51.788;6.136;2023-02-15T09:21:31;22.87;;;12.70;;
4885;SDS011;2457;51.788;6.136;2023-02-15T09:23:59;30.63;;;14.13;;
4885;SDS011;2457;51.788;6.136;2023-02-15T09:26:28;28.87;;;14.23;;
4885;SDS011;2457;51.788;6.136;2023-02-15T09:28:56;22.80;;;13.20;;
4885;SDS011;2457;51.788;6.136;2023-02-15T09:31:25;24.17;;;14.87;;
4885;SDS011;2457;51.788;6.136;2023-02-15T09:33:53;27.70;;;14.23;;
4885;SDS011;2457;51.788;6.136;2023-02-15T09:38:56;25.40;;;13.47;;
4885;SDS011;2457;51.788;6.136;2023-02-15T09:49:29;23.93;;;13.43;;
4885;SDS011;2457;51.788;6.136;2023-02-15T09:51:46;25.10;;;13.37;;
4885;SDS011;2457;51.788;6.136;2023-02-15T09:56:55;28.23;;;13.37;;
4885;SDS011;2457;51.788;6.136;2023-02-15T09:59:34;22.40;;;13.40;;
4885;SDS011;2457;51.788;6.136;2023-02-15T10:07:13;21.30;;;12.70;;
4885;SDS011;2457;51.788;6.136;2023-02-15T10:17:35;27.70;;;14.07;;
4885;SDS011;2457;51.788;6.136;2023-02-15T10:25:14;23.87;;;13.03;;
4885;SDS011;2457;51.788;6.136;2023-02-15T10:27:46;28.73;;;13.33;;
4885;SDS011;2457;51.788;6.136;2023-02-15T10:30:27;24.03;;;14.10;;
4885;SDS011;2457;51.788;6.136;2023-02-15T10:33:01;22.90;;;13.10;;
4885;SDS011;2457;51.788;6.136;2023-02-15T10:38:18;26.47;;;13.80;;
4885;SDS011;2457;51.788;6.136;2023-02-15T10:43:19;21.03;;;11.57;;
4885;SDS011;2457;51.788;6.136;2023-02-15T10:45:49;29.30;;;12.60;;
4885;SDS011;2457;51.788;6.136;2023-02-15T10:51:05;27.43;;;12.87;;
4885;SDS011;2457;51.788;6.136;2023-02-15T10:53:52;25.23;;;13.03;;
4885;SDS011;2457;51.788;6.136;2023-02-15T10:56:19;21.73;;;11.70;;
4885;SDS011;2457;51.788;6.136;2023-02-15T10:58:59;24.30;;;13.27;;
4885;SDS011;2457;51.788;6.136;2023-02-15T11:01:25;24.10;;;12.13;;
4885;SDS011;2457;51.788;6.136;2023-02-15T11:06:36;26.33;;;12.57;;
4885;SDS011;2457;51.788;6.136;2023-02-15T11:09:12;22.43;;;11.93;;
4885;SDS011;2457;51.788;6.136;2023-02-15T11:11:41;24.63;;;12.27;;
4885;SDS011;2457;51.788;6.136;2023-02-15T11:14:13;21.90;;;12.37;;
4885;SDS011;2457;51.788;6.136;2023-02-15T11:16:40;24.00;;;12.00;;
4885;SDS011;2457;51.788;6.136;2023-02-15T11:19:27;24.80;;;12.40;;
4885;SDS011;2457;51.788;6.136;2023-02-15T11:21:55;23.50;;;11.80;;
4885;SDS011;2457;51.788;6.136;2023-02-15T11:24:24;32.43;;;12.90;;
4885;SDS011;2457;51.788;6.136;2023-02-15T11:27:03;27.27;;;12.83;;
4885;SDS011;2457;51.788;6.136;2023-02-15T11:29:34;31.30;;;14.10;;
4885;SDS011;2457;51.788;6.136;2023-02-15T11:32:03;22.70;;;11.83;;
4885;SDS011;2457;51.788;6.136;2023-02-15T11:34:34;24.93;;;12.40;;
4885;SDS011;2457;51.788;6.136;2023-02-15T11:37:07;22.83;;;10.87;;
4885;SDS011;2457;51.788;6.136;2023-02-15T11:39:34;27.73;;;13.13;;
4885;SDS011;2457;51.788;6.136;2023-02-15T11:42:04;24.67;;;11.97;;
4885;SDS011;2457;51.788;6.136;2023-02-15T11:46:59;22.07;;;11.33;;
4885;SDS011;2457;51.788;6.136;2023-02-15T11:49:29;23.23;;;11.57;;
4885;SDS011;2457;51.788;6.136;2023-02-15T11:51:56;26.13;;;12.20;;
4885;SDS011;2457;51.788;6.136;2023-02-15T11:54:26;25.07;;;12.40;;
4885;SDS011;2457;51.788;6.136;2023-02-15T11:56:54;25.83;;;11.90;;
4885;SDS011;2457;51.788;6.136;2023-02-15T11:59:29;25.03;;;11.97;;
4885;SDS011;2457;51.788;6.136;2023-02-15T12:01:57;24.40;;;11.23;;
4885;SDS011;2457;51.788;6.136;2023-02-15T12:04:25;26.73;;;12.40;;
4885;SDS011;2457;51.788;6.136;2023-02-15T12:09:45;24.33;;;12.33;;
4885;SDS011;2457;51.788;6.136;2023-02-15T12:12:23;21.73;;;10.87;;
4885;SDS011;2457;51.788;6.136;2023-02-15T12:14:54;27.93;;;11.00;;
4885;SDS011;2457;51.788;6.136;2023-02-15T12:17:23;30.03;;;11.70;;
4885;SDS011;2457;51.788;6.136;2023-02-15T12:19:51;24.63;;;10.30;;
4885;SDS011;2457;51.788;6.136;2023-02-15T12:22:23;24.30;;;11.20;;
4885;SDS011;2457;51.788;6.136;2023-02-15T12:24:51;30.60;;;12.30;;
4885;SDS011;2457;51.788;6.136;2023-02-15T12:27:20;22.00;;;11.00;;
4885;SDS011;2457;51.788;6.136;2023-02-15T12:29:49;35.33;;;12.60;;
4885;SDS011;2457;51.788;6.136;2023-02-15T12:32:19;23.90;;;10.67;;
4885;SDS011;2457;51.788;6.136;2023-02-15T12:34:46;21.57;;;11.27;;
4885;SDS011;2457;51.788;6.136;2023-02-15T12:37:23;26.30;;;12.13;;
4885;SDS011;2457;51.788;6.136;2023-02-15T12:39:53;24.17;;;12.03;;
4885;SDS011;2457;51.788;6.136;2023-02-15T12:42:21;25.57;;;11.43;;
4885;SDS011;2457;51.788;6.136;2023-02-15T12:45:00;24.87;;;11.63;;
4885;SDS011;2457;51.788;6.136;2023-02-15T12:47:28;22.17;;;11.60;;
4885;SDS011;2457;51.788;6.136;2023-02-15T12:50:21;26.13;;;11.13;;
4885;SDS011;2457;51.788;6.136;2023-02-15T12:52:44;23.03;;;11.27;;
4885;SDS011;2457;51.788;6.136;2023-02-15T12:55:21;32.60;;;12.50;;
4885;SDS011;2457;51.788;6.136;2023-02-15T12:57:48;24.10;;;11.77;;
4885;SDS011;2457;51.788;6.136;2023-02-15T13:02:49;27.60;;;12.80;;
4885;SDS011;2457;51.788;6.136;2023-02-15T13:05:21;28.00;;;12.60;;
4885;SDS011;2457;51.788;6.136;2023-02-15T13:07:50;29.37;;;12.87;;
4885;SDS011;2457;51.788;6.136;2023-02-15T13:10:21;26.50;;;12.13;;
4885;SDS011;2457;51.788;6.136;2023-02-15T13:12:47;22.00;;;11.53;;
4885;SDS011;2457;51.788;6.136;2023-02-15T13:15:35;23.60;;;11.57;;
4885;SDS011;2457;51.788;6.136;2023-02-15T13:18:05;29.43;;;12.53;;
4885;SDS011;2457;51.788;6.136;2023-02-15T13:20:34;24.63;;;11.97;;
4885;SDS011;2457;51.788;6.136;2023-02-15T13:23:03;23.73;;;11.77;;
4885;SDS011;2457;51.788;6.136;2023-02-15T13:25:32;25.87;;;13.40;;
4885;SDS011;2457;51.788;6.136;2023-02-15T13:28:01;26.13;;;13.03;;
4885;SDS011;2457;51.788;6.136;2023-02-15T13:30:34;28.13;;;11.83;;
4885;SDS011;2457;51.788;6.136;2023-02-15T13:33:06;25.77;;;12.40;;
4885;SDS011;2457;51.788;6.136;2023-02-15T13:35:34;28.40;;;12.10;;
4885;SDS011;2457;51.788;6.136;2023-02-15T13:38:02;26.23;;;12.57;;
4885;SDS011;2457;51.788;6.136;2023-02-15T13:48:15;25.50;;;13.20;;
4885;SDS011;2457;51.788;6.136;2023-02-15T13:56:18;28.63;;;13.17;;
4885;SDS011;2457;51.788;6.136;2023-02-15T13:58:57;31.40;;;13.23;;
4885;SDS011;2457;51.788;6.136;2023-02-15T14:01:34;29.60;;;12.83;;
4885;SDS011;2457;51.788;6.136;2023-02-15T14:12:14;25.53;;;11.80;;
4885;SDS011;2457;51.788;6.136;2023-02-15T14:14:44;30.20;;;12.63;;
4885;SDS011;2457;51.788;6.136;2023-02-15T14:17:12;24.70;;;12.40;;
4885;SDS011;2457;51.788;6.136;2023-02-15T14:19:43;28.23;;;12.53;;
4885;SDS011;2457;51.788;6.136;2023-02-15T14:22:30;30.53;;;13.00;;
4885;SDS011;2457;51.788;6.136;2023-02-15T14:25:14;32.40;;;13.07;;
4885;SDS011;2457;51.788;6.136;2023-02-15T14:27:42;23.57;;;12.03;;
4885;SDS011;2457;51.788;6.136;2023-02-15T14:30:18;22.50;;;12.17;;
4885;SDS011;2457;51.788;6.136;2023-02-15T14:32:59;28.10;;;12.73;;
4885;SDS011;2457;51.788;6.136;2023-02-15T14:35:23;24.23;;;11.50;;
4885;SDS011;2457;51.788;6.136;2023-02-15T14:37:53;27.17;;;12.50;;
4885;SDS011;2457;51.788;6.136;2023-02-15T14:40:41;22.50;;;12.57;;
4885;SDS011;2457;51.788;6.136;2023-02-15T14:43:46;24.53;;;11.20;;
4885;SDS011;2457;51.788;6.136;2023-02-15T14:46:23;27.33;;;12.27;;
4885;SDS011;2457;51.788;6.136;2023-02-15T14:48:50;26.03;;;12.03;;
4885;SDS011;2457;51.788;6.136;2023-02-15T14:54:04;27.43;;;12.03;;
4885;SDS011;2457;51.788;6.136;2023-02-15T14:56:31;25.00;;;11.90;;
4885;SDS011;2457;51.788;6.136;2023-02-15T14:58:59;25.10;;;12.70;;
4885;SDS011;2457;51.788;6.136;2023-02-15T15:01:31;26.40;;;12.40;;
4885;SDS011;2457;51.788;6.136;2023-02-15T15:04:07;28.60;;;12.80;;
4885;SDS011;2457;51.788;6.136;2023-02-15T15:06:32;27.07;;;12.97;;
4885;SDS011;2457;51.788;6.136;2023-02-15T15:09:08;24.90;;;12.10;;
4885;SDS011;2457;51.788;6.136;2023-02-15T15:13:59;24.53;;;13.00;;
4885;SDS011;2457;51.788;6.136;2023-02-15T15:19:07;26.93;;;13.13;;
4885;SDS011;2457;51.788;6.136;2023-02-15T15:25:03;32.90;;;13.40;;
4885;SDS011;2457;51.788;6.136;2023-02-15T15:26:45;22.67;;;11.63;;
4885;SDS011;2457;51.788;6.136;2023-02-15T15:29:14;31.47;;;13.27;;
4885;SDS011;2457;51.788;6.136;2023-02-15T15:31:45;22.10;;;11.80;;
4885;SDS011;2457;51.788;6.136;2023-02-15T15:39:28;32.80;;;14.03;;
4885;SDS011;2457;51.788;6.136;2023-02-15T15:42:01;26.00;;;12.73;;
4885;SDS011;2457;51.788;6.136;2023-02-15T15:44:31;24.67;;;12.30;;
4885;SDS011;2457;51.788;6.136;2023-02-15T15:49:40;25.80;;;12.27;;
4885;SDS011;2457;51.788;6.136;2023-02-15T15:52:15;32.20;;;14.23;;
4885;SDS011;2457;51.788;6.136;2023-02-15T15:54:44;32.93;;;13.60;;
4885;SDS011;2457;51.788;6.136;2023-02-15T15:57:16;30.30;;;14.50;;
4885;SDS011;2457;51.788;6.136;2023-02-15T15:59:44;30.97;;;13.67;;
4885;SDS011;2457;51.788;6.136;2023-02-15T16:02:15;28.30;;;13.27;;
4885;SDS011;2457;51.788;6.136;2023-02-15T16:04:43;26.70;;;13.50;;
4885;SDS011;2457;51.788;6.136;2023-02-15T16:09:58;26.93;;;12.27;;
4885;SDS011;2457;51.788;6.136;2023-02-15T16:12:21;22.60;;;11.03;;
4885;SDS011;2457;51.788;6.136;2023-02-15T16:14:49;35.53;;;13.97;;
4885;SDS011;2457;51.788;6.136;2023-02-15T16:17:22;26.47;;;14.43;;
4885;SDS011;2457;51.788;6.136;2023-02-15T16:19:49;31.23;;;14.50;;
4885;SDS011;2457;51.788;6.136;2023-02-15T16:22:21;27.10;;;13.70;;
4885;SDS011;2457;51.788;6.136;2023-02-15T16:30:25;27.90;;;13.03;;
4885;SDS011;2457;51.788;6.136;2023-02-15T16:32:51;29.53;;;13.03;;
4885;SDS011;2457;51.788;6.136;2023-02-15T16:35:18;26.83;;;13.17;;
4885;SDS011;2457;51.788;6.136;2023-02-15T16:37:46;26.77;;;13.53;;
4885;SDS011;2457;51.788;6.136;2023-02-15T16:42:54;30.83;;;14.83;;
4885;SDS011;2457;51.788;6.136;2023-02-15T16:45:24;26.47;;;13.80;;
4885;SDS011;2457;51.788;6.136;2023-02-15T16:47:53;28.20;;;13.60;;
4885;SDS011;2457;51.788;6.136;2023-02-15T16:50:21;29.80;;;14.00;;
4885;SDS011;2457;51.788;6.136;2023-02-15T16:52:49;29.80;;;14.53;;
4885;SDS011;2457;51.788;6.136;2023-02-15T16:55:21;33.87;;;14.93;;
4885;SDS011;2457;51.788;6.136;2023-02-15T16:57:49;32.87;;;15.30;;
4885;SDS011;2457;51.788;6.136;2023-02-15T17:00:18;32.77;;;14.23;;
4885;SDS011;2457;51.788;6.136;2023-02-15T17:03:32;33.93;;;14.23;;
4885;SDS011;2457;51.788;6.136;2023-02-15T17:05:16;28.73;;;14.40;;
4885;SDS011;2457;51.788;6.136;2023-02-15T17:07:50;27.53;;;14.90;;